sensor_id;sensor_type;location;lat;lon;timestamp;pressure;altitude;pressure_sealevel;temperature;humidity
48926;BME280;39838;59.938;30.642;2023-02-08T00:01:18;102582.97;;;-2.05;82.78
48926;BME280;39838;59.938;30.642;2023-02-08T00:03:45;102584.66;;;-1.96;82.83
48926;BME280;39838;59.938;30.642;2023-02-08T00:06:14;102586.31;;;-1.96;83.10
48926;BME280;39838;59.938;30.642;2023-02-08T00:08:42;102573.81;;;-1.93;82.81
48926;BME280;39838;59.938;30.642;2023-02-08T00:11:09;102568.97;;;-1.90;82.76
48926;BME280;39838;59.938;30.642;2023-02-08T00:13:37;102576.09;;;-1.86;82.72
48926;BME280;39838;59.938;30.642;2023-02-08T00:16:05;102574.31;;;-1.87;82.93
48926;BME280;39838;59.938;30.642;2023-02-08T00:18:33;102577.13;;;-1.84;83.05
48926;BME280;39838;59.938;30.642;2023-02-08T00:21:00;102574.19;;;-1.78;82.66
48926;BME280;39838;59.938;30.642;2023-02-08T00:23:28;102564.25;;;-1.75;82.62
48926;BME280;39838;59.938;30.642;2023-02-08T00:25:55;102560.28;;;-1.72;82.65
48926;BME280;39838;59.938;30.642;2023-02-08T00:28:22;102552.25;;;-1.66;82.73
48926;BME280;39838;59.938;30.642;2023-02-08T00:30:49;102547.53;;;-1.61;82.63
48926;BME280;39838;59.938;30.642;2023-02-08T00:33:17;102534.53;;;-1.54;82.38
48926;BME280;39838;59.938;30.642;2023-02-08T00:35:45;102534.00;;;-1.50;82.62
48926;BME280;39838;59.938;30.642;2023-02-08T00:38:12;102535.25;;;-1.45;82.09
48926;BME280;39838;59.938;30.642;2023-02-08T00:40:40;102537.31;;;-1.41;82.18
48926;BME280;39838;59.938;30.642;2023-02-08T00:43:08;102539.31;;;-1.37;82.11
48926;BME280;39838;59.938;30.642;2023-02-08T00:45:35;102530.88;;;-1.36;81.74
48926;BME280;39838;59.938;30.642;2023-02-08T00:48:02;102539.63;;;-1.22;81.81
48926;BME280;39838;59.938;30.642;2023-02-08T00:50:29;102544.13;;;-1.20;81.49
48926;BME280;39838;59.938;30.642;2023-02-08T00:52:57;102548.72;;;-1.26;80.97
48926;BME280;39838;59.938;30.642;2023-02-08T00:55:25;102555.38;;;-1.28;81.38
48926;BME280;39838;59.938;30.642;2023-02-08T00:57:54;102542.34;;;-1.21;81.49
48926;BME280;39838;59.938;30.642;2023-02-08T01:00:21;102552.16;;;-1.15;80.99
48926;BME280;39838;59.938;30.642;2023-02-08T01:02:48;102539.50;;;-1.14;80.98
48926;BME280;39838;59.938;30.642;2023-02-08T01:05:15;102549.34;;;-1.18;80.93
48926;BME280;39838;59.938;30.642;2023-02-08T01:07:42;102549.09;;;-1.21;81.17
48926;BME280;39838;59.938;30.642;2023-02-08T01:12:56;102540.13;;;-1.16;81.09
48926;BME280;39838;59.938;30.642;2023-02-08T01:15:23;102536.47;;;-1.20;80.65
48926;BME280;39838;59.938;30.642;2023-02-08T01:17:52;102526.88;;;-1.22;80.99
48926;BME280;39838;59.938;30.642;2023-02-08T01:20:19;102534.72;;;-1.31;81.10
48926;BME280;39838;59.938;30.642;2023-02-08T01:22:47;102536.47;;;-1.30;81.22
48926;BME280;39838;59.938;30.642;2023-02-08T01:25:14;102522.22;;;-1.38;81.30
48926;BME280;39838;59.938;30.642;2023-02-08T01:27:41;102530.88;;;-1.26;81.21
48926;BME280;39838;59.938;30.642;2023-02-08T01:30:11;102533.03;;;-1.30;81.17
48926;BME280;39838;59.938;30.642;2023-02-08T01:32:38;102534.81;;;-1.29;81.11
48926;BME280;39838;59.938;30.642;2023-02-08T01:35:05;102517.59;;;-1.22;81.31
48926;BME280;39838;59.938;30.642;2023-02-08T01:37:32;102523.16;;;-1.16;81.28
48926;BME280;39838;59.938;30.642;2023-02-08T01:40:00;102518.84;;;-1.17;80.98
48926;BME280;39838;59.938;30.642;2023-02-08T01:42:27;102519.50;;;-1.19;80.75
48926;BME280;39838;59.938;30.642;2023-02-08T01:45:26;102525.38;;;-1.20;80.95
48926;BME280;39838;59.938;30.642;2023-02-08T01:47:59;102513.63;;;-1.18;80.79
48926;BME280;39838;59.938;30.642;2023-02-08T01:50:32;102488.16;;;-1.28;80.99
48926;BME280;39838;59.938;30.642;2023-02-08T01:53:01;102507.63;;;-1.19;80.94
48926;BME280;39838;59.938;30.642;2023-02-08T01:55:30;102498.31;;;-1.18;80.92
48926;BME280;39838;59.938;30.642;2023-02-08T01:58:01;102502.91;;;-1.14;81.11
48926;BME280;39838;59.938;30.642;2023-02-08T02:00:31;102485.03;;;-1.14;81.20
48926;BME280;39838;59.938;30.642;2023-02-08T02:05:48;102475.03;;;-1.33;81.28
48926;BME280;39838;59.938;30.642;2023-02-08T02:08:16;102489.78;;;-1.19;81.21
48926;BME280;39838;59.938;30.642;2023-02-08T02:10:43;102480.56;;;-1.17;81.61
48926;BME280;39838;59.938;30.642;2023-02-08T02:13:15;102470.16;;;-1.20;81.56
48926;BME280;39838;59.938;30.642;2023-02-08T02:15:45;102477.25;;;-1.16;81.51
48926;BME280;39838;59.938;30.642;2023-02-08T02:18:16;102485.16;;;-1.13;81.58
48926;BME280;39838;59.938;30.642;2023-02-08T02:21:10;102479.34;;;-1.22;81.14
48926;BME280;39838;59.938;30.642;2023-02-08T02:27:11;102480.63;;;-1.27;81.47
48926;BME280;39838;59.938;30.642;2023-02-08T02:30:30;102469.53;;;-1.27;81.68
48926;BME280;39838;59.938;30.642;2023-02-08T02:33:22;102461.63;;;-1.30;81.60
48926;BME280;39838;59.938;30.642;2023-02-08T02:35:55;102467.88;;;-1.27;81.90
48926;BME280;39838;59.938;30.642;2023-02-08T02:38:36;102473.22;;;-1.24;81.87
48926;BME280;39838;59.938;30.642;2023-02-08T02:41:12;102451.97;;;-1.34;81.83
48926;BME280;39838;59.938;30.642;2023-02-08T02:46:57;102462.59;;;-1.40;81.91
48926;BME280;39838;59.938;30.642;2023-02-08T02:49:31;102454.38;;;-1.36;82.37
48926;BME280;39838;59.938;30.642;2023-02-08T02:52:05;102458.25;;;-1.41;82.26
48926;BME280;39838;59.938;30.642;2023-02-08T02:54:38;102465.41;;;-1.47;82.45
48926;BME280;39838;59.938;30.642;2023-02-08T02:57:09;102448.53;;;-1.67;82.53
48926;BME280;39838;59.938;30.642;2023-02-08T02:59:38;102475.50;;;-1.49;82.65
48926;BME280;39838;59.938;30.642;2023-02-08T03:02:05;102458.16;;;-1.53;82.57
48926;BME280;39838;59.938;30.642;2023-02-08T03:04:55;102461.59;;;-1.52;82.76
48926;BME280;39838;59.938;30.642;2023-02-08T03:07:53;102456.63;;;-1.51;82.57
48926;BME280;39838;59.938;30.642;2023-02-08T03:10:36;102452.06;;;-1.55;82.85
48926;BME280;39838;59.938;30.642;2023-02-08T03:13:16;102454.22;;;-1.59;83.05
48926;BME280;39838;59.938;30.642;2023-02-08T03:15:54;102458.97;;;-1.64;83.25
48926;BME280;39838;59.938;30.642;2023-02-08T03:18:33;102458.34;;;-1.72;83.24
48926;BME280;39838;59.938;30.642;2023-02-08T03:21:08;102459.63;;;-1.67;83.50
48926;BME280;39838;59.938;30.642;2023-02-08T03:23:40;102452.63;;;-1.69;83.33
48926;BME280;39838;59.938;30.642;2023-02-08T03:26:17;102451.97;;;-1.67;83.66
48926;BME280;39838;59.938;30.642;2023-02-08T03:28:52;102428.41;;;-1.74;83.61
48926;BME280;39838;59.938;30.642;2023-02-08T03:31:27;102454.34;;;-1.58;83.59
48926;BME280;39838;59.938;30.642;2023-02-08T03:33:59;102447.47;;;-1.59;83.50
48926;BME280;39838;59.938;30.642;2023-02-08T03:36:32;102448.75;;;-1.54;83.56
48926;BME280;39838;59.938;30.642;2023-02-08T03:39:03;102452.47;;;-1.60;83.39
48926;BME280;39838;59.938;30.642;2023-02-08T03:44:22;102445.72;;;-1.70;83.88
48926;BME280;39838;59.938;30.642;2023-02-08T03:47:09;102470.19;;;-1.62;83.73
48926;BME280;39838;59.938;30.642;2023-02-08T03:49:38;102476.19;;;-1.61;84.24
48926;BME280;39838;59.938;30.642;2023-02-08T03:52:09;102479.50;;;-1.62;84.06
48926;BME280;39838;59.938;30.642;2023-02-08T03:54:44;102469.31;;;-1.62;84.40
48926;BME280;39838;59.938;30.642;2023-02-08T03:57:17;102472.59;;;-1.63;84.15
48926;BME280;39838;59.938;30.642;2023-02-08T03:59:51;102475.53;;;-1.59;84.62
48926;BME280;39838;59.938;30.642;2023-02-08T04:02:21;102489.81;;;-1.61;84.41
48926;BME280;39838;59.938;30.642;2023-02-08T04:04:50;102487.88;;;-1.63;84.34
48926;BME280;39838;59.938;30.642;2023-02-08T04:07:19;102505.34;;;-1.58;84.75
48926;BME280;39838;59.938;30.642;2023-02-08T04:09:46;102505.34;;;-1.58;84.64
48926;BME280;39838;59.938;30.642;2023-02-08T04:14:59;102512.09;;;-1.58;84.77
48926;BME280;39838;59.938;30.642;2023-02-08T04:17:26;102512.38;;;-1.55;84.77
48926;BME280;39838;59.938;30.642;2023-02-08T04:19:53;102517.69;;;-1.52;84.66
48926;BME280;39838;59.938;30.642;2023-02-08T04:22:21;102518.69;;;-1.50;84.63
48926;BME280;39838;59.938;30.642;2023-02-08T04:24:48;102509.75;;;-1.45;84.48
48926;BME280;39838;59.938;30.642;2023-02-08T04:27:16;102514.09;;;-1.44;84.33
48926;BME280;39838;59.938;30.642;2023-02-08T04:29:43;102501.34;;;-1.44;84.33
48926;BME280;39838;59.938;30.642;2023-02-08T04:32:10;102520.63;;;-1.48;84.37
48926;BME280;39838;59.938;30.642;2023-02-08T04:34:38;102510.53;;;-1.46;84.12
48926;BME280;39838;59.938;30.642;2023-02-08T04:37:06;102518.41;;;-1.43;84.18
48926;BME280;39838;59.938;30.642;2023-02-08T04:39:35;102517.13;;;-1.38;83.98
48926;BME280;39838;59.938;30.642;2023-02-08T04:42:02;102519.44;;;-1.41;84.08
48926;BME280;39838;59.938;30.642;2023-02-08T04:44:29;102512.69;;;-1.41;84.02
48926;BME280;39838;59.938;30.642;2023-02-08T04:46:57;102514.47;;;-1.40;83.89
48926;BME280;39838;59.938;30.642;2023-02-08T04:49:24;102504.66;;;-1.45;84.26
48926;BME280;39838;59.938;30.642;2023-02-08T04:51:51;102521.72;;;-1.34;83.85
48926;BME280;39838;59.938;30.642;2023-02-08T04:54:18;102519.03;;;-1.35;83.51
48926;BME280;39838;59.938;30.642;2023-02-08T04:56:47;102519.66;;;-1.28;83.81
48926;BME280;39838;59.938;30.642;2023-02-08T04:59:14;102513.03;;;-1.26;83.43
48926;BME280;39838;59.938;30.642;2023-02-08T05:01:59;102512.13;;;-1.26;83.45
48926;BME280;39838;59.938;30.642;2023-02-08T05:04:26;102520.16;;;-1.22;83.44
48926;BME280;39838;59.938;30.642;2023-02-08T05:06:53;102515.94;;;-1.21;83.29
48926;BME280;39838;59.938;30.642;2023-02-08T05:09:20;102506.38;;;-1.24;83.30
48926;BME280;39838;59.938;30.642;2023-02-08T05:11:49;102514.69;;;-1.26;83.39
48926;BME280;39838;59.938;30.642;2023-02-08T05:14:16;102515.31;;;-1.29;83.29
48926;BME280;39838;59.938;30.642;2023-02-08T05:16:43;102508.91;;;-1.24;83.00
48926;BME280;39838;59.938;30.642;2023-02-08T05:19:11;102499.09;;;-1.19;83.34
48926;BME280;39838;59.938;30.642;2023-02-08T05:21:38;102497.31;;;-1.20;83.29
48926;BME280;39838;59.938;30.642;2023-02-08T05:24:05;102493.22;;;-1.18;82.99
48926;BME280;39838;59.938;30.642;2023-02-08T05:26:32;102489.13;;;-1.16;82.84
48926;BME280;39838;59.938;30.642;2023-02-08T05:29:01;102493.22;;;-1.18;82.65
48926;BME280;39838;59.938;30.642;2023-02-08T05:31:28;102494.50;;;-1.23;82.47
48926;BME280;39838;59.938;30.642;2023-02-08T05:33:55;102500.38;;;-1.24;82.46
48926;BME280;39838;59.938;30.642;2023-02-08T05:36:22;102499.38;;;-1.26;82.73
48926;BME280;39838;59.938;30.642;2023-02-08T05:38:49;102495.06;;;-1.27;82.58
48926;BME280;39838;59.938;30.642;2023-02-08T05:41:18;102493.38;;;-1.27;82.77
48926;BME280;39838;59.938;30.642;2023-02-08T05:43:45;102493.38;;;-1.27;82.52
48926;BME280;39838;59.938;30.642;2023-02-08T05:46:14;102491.31;;;-1.21;82.56
48926;BME280;39838;59.938;30.642;2023-02-08T05:48:41;102490.06;;;-1.26;82.80
48926;BME280;39838;59.938;30.642;2023-02-08T05:51:08;102496.28;;;-1.22;82.59
48926;BME280;39838;59.938;30.642;2023-02-08T05:53:35;102502.16;;;-1.23;82.67
48926;BME280;39838;59.938;30.642;2023-02-08T05:56:03;102503.69;;;-1.25;82.94
48926;BME280;39838;59.938;30.642;2023-02-08T06:01:17;102504.56;;;-1.15;83.01
48926;BME280;39838;59.938;30.642;2023-02-08T06:03:44;102487.00;;;-1.22;82.73
48926;BME280;39838;59.938;30.642;2023-02-08T06:06:11;102492.16;;;-1.10;82.83
48926;BME280;39838;59.938;30.642;2023-02-08T06:08:39;102495.84;;;-1.06;82.71
48926;BME280;39838;59.938;30.642;2023-02-08T06:11:06;102499.41;;;-1.04;82.38
48926;BME280;39838;59.938;30.642;2023-02-08T06:13:33;102510.28;;;-1.07;82.28
48926;BME280;39838;59.938;30.642;2023-02-08T06:16:00;102506.06;;;-1.06;82.57
48926;BME280;39838;59.938;30.642;2023-02-08T06:18:46;102508.84;;;-1.03;82.63
48926;BME280;39838;59.938;30.642;2023-02-08T06:21:13;102495.97;;;-1.05;82.38
48926;BME280;39838;59.938;30.642;2023-02-08T06:23:40;102497.84;;;-1.02;82.32
48926;BME280;39838;59.938;30.642;2023-02-08T06:26:08;102497.34;;;-0.98;82.43
48926;BME280;39838;59.938;30.642;2023-02-08T06:28:44;102500.78;;;-0.98;82.42
48926;BME280;39838;59.938;30.642;2023-02-08T06:31:11;102508.53;;;-0.96;82.12
48926;BME280;39838;59.938;30.642;2023-02-08T06:33:39;102503.44;;;-0.96;82.52
48926;BME280;39838;59.938;30.642;2023-02-08T06:36:07;102500.59;;;-0.89;82.50
48926;BME280;39838;59.938;30.642;2023-02-08T06:38:35;102504.16;;;-0.87;83.05
48926;BME280;39838;59.938;30.642;2023-02-08T06:41:02;102506.94;;;-0.84;82.70
48926;BME280;39838;59.938;30.642;2023-02-08T06:43:29;102513.53;;;-0.76;82.83
48926;BME280;39838;59.938;30.642;2023-02-08T06:45:59;102520.66;;;-0.72;82.66
48926;BME280;39838;59.938;30.642;2023-02-08T06:48:29;102516.81;;;-0.67;82.65
48926;BME280;39838;59.938;30.642;2023-02-08T06:50:56;102514.75;;;-0.61;82.69
48926;BME280;39838;59.938;30.642;2023-02-08T06:53:25;102516.50;;;-0.60;82.28
48926;BME280;39838;59.938;30.642;2023-02-08T06:55:52;102520.06;;;-0.58;82.38
48926;BME280;39838;59.938;30.642;2023-02-08T06:58:19;102518.34;;;-0.47;82.33
48926;BME280;39838;59.938;30.642;2023-02-08T07:00:46;102514.91;;;-0.47;81.88
48926;BME280;39838;59.938;30.642;2023-02-08T07:03:14;102510.53;;;-0.48;82.35
48926;BME280;39838;59.938;30.642;2023-02-08T07:05:42;102509.03;;;-0.46;82.24
48926;BME280;39838;59.938;30.642;2023-02-08T07:08:09;102510.13;;;-0.43;82.08
48926;BME280;39838;59.938;30.642;2023-02-08T07:10:38;102509.59;;;-0.39;81.94
48926;BME280;39838;59.938;30.642;2023-02-08T07:13:06;102519.72;;;-0.40;81.98
48926;BME280;39838;59.938;30.642;2023-02-08T07:15:33;102506.78;;;-0.42;82.29
48926;BME280;39838;59.938;30.642;2023-02-08T07:18:00;102502.81;;;-0.38;82.01
48926;BME280;39838;59.938;30.642;2023-02-08T07:20:27;102505.28;;;-0.40;82.21
48926;BME280;39838;59.938;30.642;2023-02-08T07:22:54;102507.63;;;-0.31;81.85
48926;BME280;39838;59.938;30.642;2023-02-08T07:25:22;102515.28;;;-0.31;81.99
48926;BME280;39838;59.938;30.642;2023-02-08T07:27:50;102508.28;;;-0.34;82.12
48926;BME280;39838;59.938;30.642;2023-02-08T07:30:17;102511.06;;;-0.31;81.96
48926;BME280;39838;59.938;30.642;2023-02-08T07:32:45;102508.50;;;-0.31;81.99
48926;BME280;39838;59.938;30.642;2023-02-08T07:35:12;102505.63;;;-0.23;82.43
48926;BME280;39838;59.938;30.642;2023-02-08T07:37:39;102495.78;;;-0.19;82.07
48926;BME280;39838;59.938;30.642;2023-02-08T07:40:06;102495.00;;;-0.18;82.25
48926;BME280;39838;59.938;30.642;2023-02-08T07:42:34;102486.56;;;-0.17;82.43
48926;BME280;39838;59.938;30.642;2023-02-08T07:45:02;102478.09;;;-0.16;82.22
48926;BME280;39838;59.938;30.642;2023-02-08T07:47:30;102486.91;;;-0.12;82.29
48926;BME280;39838;59.938;30.642;2023-02-08T07:49:57;102468.44;;;-0.08;82.34
48926;BME280;39838;59.938;30.642;2023-02-08T07:55:12;102473.69;;;-0.07;82.41
48926;BME280;39838;59.938;30.642;2023-02-08T07:57:41;102475.56;;;-0.04;82.48
48926;BME280;39838;59.938;30.642;2023-02-08T08:00:12;102468.44;;;-0.08;83.15
48926;BME280;39838;59.938;30.642;2023-02-08T08:02:39;102475.34;;;-0.07;82.79
48926;BME280;39838;59.938;30.642;2023-02-08T08:05:07;102494.34;;;-0.04;83.28
48926;BME280;39838;59.938;30.642;2023-02-08T08:07:34;102480.44;;;-0.07;83.14
48926;BME280;39838;59.938;30.642;2023-02-08T08:10:15;102476.13;;;-0.08;82.81
48926;BME280;39838;59.938;30.642;2023-02-08T08:12:43;102486.69;;;-0.04;83.22
48926;BME280;39838;59.938;30.642;2023-02-08T08:15:11;102488.47;;;-0.03;83.20
48926;BME280;39838;59.938;30.642;2023-02-08T08:17:38;102505.81;;;0.02;83.04
48926;BME280;39838;59.938;30.642;2023-02-08T08:20:08;102497.38;;;0.03;83.18
48926;BME280;39838;59.938;30.642;2023-02-08T08:22:35;102504.59;;;0.08;83.50
48926;BME280;39838;59.938;30.642;2023-02-08T08:25:02;102491.16;;;0.11;83.55
48926;BME280;39838;59.938;30.642;2023-02-08T08:27:30;102500.69;;;0.13;83.12
48926;BME280;39838;59.938;30.642;2023-02-08T08:29:57;102492.28;;;0.14;83.46
48926;BME280;39838;59.938;30.642;2023-02-08T08:32:26;102486.81;;;0.10;83.28
48926;BME280;39838;59.938;30.642;2023-02-08T08:34:54;102496.94;;;0.08;83.36
48926;BME280;39838;59.938;30.642;2023-02-08T08:37:21;102479.50;;;0.14;83.59
48926;BME280;39838;59.938;30.642;2023-02-08T08:40:07;102484.81;;;0.17;83.47
48926;BME280;39838;59.938;30.642;2023-02-08T08:42:34;102483.94;;;0.17;83.58
48926;BME280;39838;59.938;30.642;2023-02-08T08:45:02;102478.94;;;0.18;83.42
48926;BME280;39838;59.938;30.642;2023-02-08T08:47:49;102493.38;;;0.18;83.41
48926;BME280;39838;59.938;30.642;2023-02-08T08:50:17;102485.63;;;0.28;83.58
48926;BME280;39838;59.938;30.642;2023-02-08T08:52:44;102489.50;;;0.35;83.15
48926;BME280;39838;59.938;30.642;2023-02-08T08:55:11;102494.19;;;0.29;83.46
48926;BME280;39838;59.938;30.642;2023-02-08T08:57:39;102487.84;;;0.23;83.19
48926;BME280;39838;59.938;30.642;2023-02-08T09:00:07;102490.50;;;0.25;83.40
48926;BME280;39838;59.938;30.642;2023-02-08T09:02:34;102488.28;;;0.30;83.64
48926;BME280;39838;59.938;30.642;2023-02-08T09:05:03;102499.06;;;0.37;83.35
48926;BME280;39838;59.938;30.642;2023-02-08T09:10:20;102492.81;;;0.45;83.55
48926;BME280;39838;59.938;30.642;2023-02-08T09:12:47;102487.06;;;0.48;83.74
48926;BME280;39838;59.938;30.642;2023-02-08T09:15:14;102499.38;;;0.53;83.76
48926;BME280;39838;59.938;30.642;2023-02-08T09:17:41;102508.28;;;0.59;83.23
48926;BME280;39838;59.938;30.642;2023-02-08T09:20:10;102507.06;;;0.65;83.04
48926;BME280;39838;59.938;30.642;2023-02-08T09:22:40;102504.84;;;0.58;83.31
48926;BME280;39838;59.938;30.642;2023-02-08T09:25:07;102522.31;;;0.64;82.91
48926;BME280;39838;59.938;30.642;2023-02-08T09:27:34;102519.75;;;0.64;83.28
48926;BME280;39838;59.938;30.642;2023-02-08T09:30:01;102516.41;;;0.65;82.90
48926;BME280;39838;59.938;30.642;2023-02-08T09:32:31;102510.50;;;0.66;82.80
48926;BME280;39838;59.938;30.642;2023-02-08T09:34:59;102523.53;;;0.69;83.30
48926;BME280;39838;59.938;30.642;2023-02-08T09:37:29;102531.22;;;0.69;82.52
48926;BME280;39838;59.938;30.642;2023-02-08T09:39:56;102526.09;;;0.69;82.81
48926;BME280;39838;59.938;30.642;2023-02-08T09:42:34;102539.66;;;0.68;82.45
48926;BME280;39838;59.938;30.642;2023-02-08T09:45:28;102542.97;;;0.67;82.93
48926;BME280;39838;59.938;30.642;2023-02-08T09:48:13;102537.09;;;0.68;83.04
48926;BME280;39838;59.938;30.642;2023-02-08T09:50:44;102507.75;;;0.63;82.95
48926;BME280;39838;59.938;30.642;2023-02-08T09:53:16;102502.28;;;0.70;82.51
48926;BME280;39838;59.938;30.642;2023-02-08T09:55:47;102523.94;;;0.87;82.37
48926;BME280;39838;59.938;30.642;2023-02-08T09:58:20;102528.72;;;0.94;82.24
48926;BME280;39838;59.938;30.642;2023-02-08T10:00:50;102533.81;;;0.94;82.10
48926;BME280;39838;59.938;30.642;2023-02-08T10:03:36;102530.38;;;0.93;82.17
48926;BME280;39838;59.938;30.642;2023-02-08T10:06:05;102531.75;;;0.88;82.34
48926;BME280;39838;59.938;30.642;2023-02-08T10:08:34;102502.28;;;0.70;82.40
48926;BME280;39838;59.938;30.642;2023-02-08T10:11:09;102512.50;;;0.81;82.40
48926;BME280;39838;59.938;30.642;2023-02-08T10:14:07;102492.25;;;0.73;82.59
48926;BME280;39838;59.938;30.642;2023-02-08T10:16:51;102507.16;;;0.90;82.56
48926;BME280;39838;59.938;30.642;2023-02-08T10:24:17;102498.34;;;0.98;82.75
48926;BME280;39838;59.938;30.642;2023-02-08T10:26:55;102510.00;;;1.06;82.39
48926;BME280;39838;59.938;30.642;2023-02-08T10:29:50;102510.31;;;1.11;82.27
48926;BME280;39838;59.938;30.642;2023-02-08T10:32:33;102516.34;;;1.12;82.09
48926;BME280;39838;59.938;30.642;2023-02-08T10:35:10;102510.75;;;1.17;82.33
48926;BME280;39838;59.938;30.642;2023-02-08T10:37:40;102504.50;;;1.25;82.35
48926;BME280;39838;59.938;30.642;2023-02-08T10:40:33;102500.34;;;1.27;81.87
48926;BME280;39838;59.938;30.642;2023-02-08T10:43:13;102500.25;;;1.26;82.15
48926;BME280;39838;59.938;30.642;2023-02-08T10:45:47;102484.34;;;1.30;82.05
48926;BME280;39838;59.938;30.642;2023-02-08T10:48:28;102493.31;;;1.36;82.34
48926;BME280;39838;59.938;30.642;2023-02-08T10:50:57;102484.75;;;1.36;82.36
48926;BME280;39838;59.938;30.642;2023-02-08T10:53:24;102479.63;;;1.36;81.70
48926;BME280;39838;59.938;30.642;2023-02-08T10:55:53;102477.72;;;1.33;81.53
48926;BME280;39838;59.938;30.642;2023-02-08T10:58:23;102488.00;;;1.22;81.60
48926;BME280;39838;59.938;30.642;2023-02-08T11:00:51;102491.50;;;1.22;81.85
48926;BME280;39838;59.938;30.642;2023-02-08T11:03:21;102491.25;;;1.19;81.69
48926;BME280;39838;59.938;30.642;2023-02-08T11:06:24;102480.59;;;1.13;81.91
48926;BME280;39838;59.938;30.642;2023-02-08T11:08:54;102480.81;;;1.16;82.01
48926;BME280;39838;59.938;30.642;2023-02-08T11:11:23;102476.59;;;1.17;81.71
48926;BME280;39838;59.938;30.642;2023-02-08T11:13:52;102487.13;;;1.21;82.25
48926;BME280;39838;59.938;30.642;2023-02-08T11:16:37;102482.22;;;1.24;81.73
48926;BME280;39838;59.938;30.642;2023-02-08T11:21:52;102484.44;;;1.31;81.86
48926;BME280;39838;59.938;30.642;2023-02-08T11:24:27;102486.09;;;1.31;81.40
48926;BME280;39838;59.938;30.642;2023-02-08T11:26:56;102491.13;;;1.29;81.83
48926;BME280;39838;59.938;30.642;2023-02-08T11:29:28;102488.66;;;1.31;81.67
48926;BME280;39838;59.938;30.642;2023-02-08T11:31:58;102502.34;;;1.31;81.12
48926;BME280;39838;59.938;30.642;2023-02-08T11:34:44;102493.13;;;1.22;81.53
48926;BME280;39838;59.938;30.642;2023-02-08T11:37:13;102486.81;;;1.17;81.37
48926;BME280;39838;59.938;30.642;2023-02-08T11:39:42;102480.03;;;1.17;81.73
48926;BME280;39838;59.938;30.642;2023-02-08T11:42:19;102490.69;;;1.23;81.81
48926;BME280;39838;59.938;30.642;2023-02-08T11:44:48;102489.81;;;1.23;81.80
48926;BME280;39838;59.938;30.642;2023-02-08T11:47:23;102493.34;;;1.25;81.49
48926;BME280;39838;59.938;30.642;2023-02-08T11:50:17;102496.34;;;1.31;82.04
48926;BME280;39838;59.938;30.642;2023-02-08T11:52:50;102503.66;;;1.38;81.49
48926;BME280;39838;59.938;30.642;2023-02-08T11:55:28;102488.06;;;1.35;81.26
48926;BME280;39838;59.938;30.642;2023-02-08T11:58:27;102492.00;;;1.30;81.25
48926;BME280;39838;59.938;30.642;2023-02-08T12:01:00;102482.69;;;1.19;81.42
48926;BME280;39838;59.938;30.642;2023-02-08T12:03:46;102494.94;;;1.23;81.78
48926;BME280;39838;59.938;30.642;2023-02-08T12:06:40;102488.59;;;1.18;81.61
48926;BME280;39838;59.938;30.642;2023-02-08T12:09:19;102501.97;;;1.14;82.05
48926;BME280;39838;59.938;30.642;2023-02-08T12:11:54;102475.50;;;1.01;81.70
48926;BME280;39838;59.938;30.642;2023-02-08T12:14:41;102493.09;;;1.08;81.88
48926;BME280;39838;59.938;30.642;2023-02-08T12:17:48;102503.00;;;1.04;81.93
48926;BME280;39838;59.938;30.642;2023-02-08T12:20:32;102489.06;;;1.00;82.18
48926;BME280;39838;59.938;30.642;2023-02-08T12:23:11;102501.09;;;1.01;82.16
48926;BME280;39838;59.938;30.642;2023-02-08T12:25:43;102499.31;;;1.00;82.48
48926;BME280;39838;59.938;30.642;2023-02-08T12:28:19;102493.91;;;0.96;82.49
48926;BME280;39838;59.938;30.642;2023-02-08T12:30:58;102516.88;;;1.07;82.30
48926;BME280;39838;59.938;30.642;2023-02-08T12:33:37;102522.00;;;1.07;82.60
48926;BME280;39838;59.938;30.642;2023-02-08T12:39:19;102517.66;;;1.06;82.47
48926;BME280;39838;59.938;30.642;2023-02-08T12:42:35;102505.56;;;1.04;82.70
48926;BME280;39838;59.938;30.642;2023-02-08T12:45:34;102501.44;;;0.94;82.65
48926;BME280;39838;59.938;30.642;2023-02-08T12:48:14;102516.25;;;0.98;82.93
48926;BME280;39838;59.938;30.642;2023-02-08T12:50:50;102506.47;;;0.93;82.84
48926;BME280;39838;59.938;30.642;2023-02-08T12:53:22;102507.44;;;0.95;83.44
48926;BME280;39838;59.938;30.642;2023-02-08T12:55:51;102509.56;;;1.00;83.59
48926;BME280;39838;59.938;30.642;2023-02-08T12:58:28;102507.22;;;1.03;83.71
48926;BME280;39838;59.938;30.642;2023-02-08T13:01:00;102481.31;;;0.99;83.71
48926;BME280;39838;59.938;30.642;2023-02-08T13:03:35;102496.94;;;1.15;84.02
48926;BME280;39838;59.938;30.642;2023-02-08T13:06:06;102502.84;;;1.14;83.64
48926;BME280;39838;59.938;30.642;2023-02-08T13:08:44;102506.41;;;1.16;83.83
48926;BME280;39838;59.938;30.642;2023-02-08T13:11:19;102504.50;;;1.14;83.74
48926;BME280;39838;59.938;30.642;2023-02-08T13:13:54;102487.06;;;1.08;83.82
48926;BME280;39838;59.938;30.642;2023-02-08T13:16:25;102518.19;;;1.26;83.92
48926;BME280;39838;59.938;30.642;2023-02-08T13:19:09;102493.72;;;1.18;84.00
48926;BME280;39838;59.938;30.642;2023-02-08T13:21:45;102513.50;;;1.32;83.92
48926;BME280;39838;59.938;30.642;2023-02-08T13:24:18;102514.59;;;1.35;83.97
48926;BME280;39838;59.938;30.642;2023-02-08T13:26:48;102519.56;;;1.46;83.89
48926;BME280;39838;59.938;30.642;2023-02-08T13:29:17;102510.19;;;1.46;83.66
48926;BME280;39838;59.938;30.642;2023-02-08T13:31:48;102518.13;;;1.49;83.50
48926;BME280;39838;59.938;30.642;2023-02-08T13:34:27;102523.78;;;1.45;83.61
48926;BME280;39838;59.938;30.642;2023-02-08T13:39:45;102524.78;;;1.47;83.55
48926;BME280;39838;59.938;30.642;2023-02-08T13:42:20;102519.38;;;1.43;83.63
48926;BME280;39838;59.938;30.642;2023-02-08T13:44:51;102515.88;;;1.42;83.81
48926;BME280;39838;59.938;30.642;2023-02-08T13:47:23;102528.34;;;1.49;83.68